createdAt,value
2019-03-27T00:00:17.118Z,77.33
2019-03-27T00:02:46.296Z,77.31
2019-03-27T00:05:15.756Z,77.31
2019-03-27T00:07:44.927Z,76.93
2019-03-27T00:10:14.266Z,76.70
2019-03-27T00:12:43.450Z,76.70
2019-03-27T00:15:14.002Z,76.64
2019-03-27T00:17:43.234Z,76.67
2019-03-27T00:20:12.958Z,76.67
2019-03-27T00:22:42.143Z,75.96
2019-03-27T00:25:11.744Z,75.90
2019-03-27T00:27:40.941Z,75.80
2019-03-27T00:30:10.776Z,75.88
2019-03-27T00:32:40.025Z,75.88
2019-03-27T00:35:09.578Z,75.92
2019-03-27T00:37:38.749Z,75.92
2019-03-27T00:40:08.673Z,75.81
2019-03-27T00:42:37.859Z,75.81
2019-03-27T00:45:07.981Z,75.86
2019-03-27T00:47:37.216Z,75.78
2019-03-27T00:50:09.592Z,75.78
2019-03-27T00:52:38.749Z,76.09
2019-03-27T00:55:08.866Z,76.06
2019-03-27T00:57:38.204Z,76.16
2019-03-27T01:00:19.172Z,76.12
2019-03-27T01:02:48.423Z,76.01
2019-03-27T01:05:17.604Z,75.83
2019-03-27T01:07:46.821Z,76.45
2019-03-27T01:10:16.844Z,76.16
2019-03-27T01:12:46.046Z,76.16
2019-03-27T01:15:15.297Z,76.47
2019-03-27T01:17:44.473Z,76.47
2019-03-27T01:20:13.816Z,76.33
2019-03-27T01:22:43.878Z,76.38
2019-03-27T01:25:13.064Z,76.27
2019-03-27T01:27:42.262Z,76.49
2019-03-27T01:30:11.757Z,76.49
2019-03-27T01:32:40.940Z,76.74
2019-03-27T01:35:10.366Z,76.71
2019-03-27T01:37:39.560Z,76.64
2019-03-27T01:40:09.772Z,77.25
2019-03-27T01:42:38.944Z,77.19
2019-03-27T01:45:09.002Z,77.19
2019-03-27T01:47:38.188Z,77.77
2019-03-27T01:50:08.017Z,77.34
2019-03-27T01:52:37.200Z,77.56
2019-03-27T01:55:08.251Z,77.39
2019-03-27T01:57:37.488Z,77.08
2019-03-27T02:00:09.950Z,77.08
2019-03-27T02:02:39.124Z,77.07
2019-03-27T02:05:08.641Z,76.69
2019-03-27T02:07:37.865Z,76.66
2019-03-27T02:10:07.755Z,76.66
2019-03-27T02:12:36.951Z,76.32
2019-03-27T02:15:08.871Z,76.11
2019-03-27T02:17:38.046Z,75.86
2019-03-27T02:20:09.450Z,75.86
2019-03-27T02:22:38.647Z,75.45
2019-03-27T02:25:08.074Z,75.38
2019-03-27T02:27:37.243Z,75.27
2019-03-27T02:30:07.319Z,75.27
2019-03-27T02:32:36.493Z,75.25
2019-03-27T02:35:06.306Z,75.11
2019-03-27T02:37:35.496Z,75.34
2019-03-27T02:40:07.153Z,75.04
2019-03-27T02:42:36.351Z,75.04
2019-03-27T02:45:06.550Z,75.13
2019-03-27T02:47:35.721Z,75.15
2019-03-27T02:50:06.949Z,75.50
2019-03-27T02:52:36.110Z,75.50
2019-03-27T02:55:08.047Z,75.47
2019-03-27T02:57:37.212Z,75.26
2019-03-27T03:00:11.140Z,74.82
2019-03-27T03:02:40.311Z,75.24
2019-03-27T03:05:09.931Z,75.08
2019-03-27T03:07:39.119Z,75.08
2019-03-27T03:10:09.533Z,75.43
2019-03-27T03:12:38.734Z,75.47
2019-03-27T03:15:08.250Z,75.10
2019-03-27T03:17:37.445Z,75.38
2019-03-27T03:20:08.082Z,75.38
2019-03-27T03:22:37.251Z,75.17
2019-03-27T03:25:06.573Z,75.16
2019-03-27T03:27:35.783Z,75.32
2019-03-27T03:30:08.354Z,75.32
2019-03-27T03:32:37.550Z,74.96
2019-03-27T03:35:07.567Z,74.96
2019-03-27T03:37:36.768Z,75.38
2019-03-27T03:40:06.182Z,74.87
2019-03-27T03:42:35.397Z,74.87
2019-03-27T03:45:07.357Z,75.21
2019-03-27T03:47:36.530Z,74.98
2019-03-27T03:50:07.370Z,75.18
2019-03-27T03:52:36.691Z,75.18
2019-03-27T03:55:06.499Z,75.41
2019-03-27T03:57:37.126Z,75.24
2019-03-27T04:00:08.121Z,75.29
2019-03-27T04:02:37.595Z,75.37
2019-03-27T04:05:07.633Z,75.50
2019-03-27T04:07:36.829Z,75.36
2019-03-27T04:10:07.832Z,75.36
2019-03-27T04:12:37.006Z,75.76
2019-03-27T04:15:07.521Z,75.65
2019-03-27T04:17:36.733Z,75.73
2019-03-27T04:20:07.891Z,75.99
2019-03-27T04:22:37.150Z,75.99
2019-03-27T04:25:07.112Z,75.53
2019-03-27T04:27:36.369Z,75.59
2019-03-27T04:30:07.102Z,75.59
2019-03-27T04:32:36.450Z,75.74
2019-03-27T04:35:06.419Z,75.64
2019-03-27T04:37:35.669Z,75.52
2019-03-27T04:40:06.363Z,75.52
2019-03-27T04:42:35.583Z,75.82
2019-03-27T04:45:05.792Z,75.74
2019-03-27T04:47:35.017Z,75.79
2019-03-27T04:50:06.465Z,76.32
2019-03-27T04:52:35.728Z,76.32
2019-03-27T04:55:06.208Z,76.06
2019-03-27T04:57:35.462Z,76.16
2019-03-27T05:00:07.119Z,76.09
2019-03-27T05:02:36.416Z,76.21
2019-03-27T05:05:07.564Z,76.34
2019-03-27T05:07:36.814Z,76.20
2019-03-27T05:10:06.738Z,76.20
2019-03-27T05:12:38.579Z,76.22
2019-03-27T05:15:07.972Z,76.19
2019-03-27T05:17:45.869Z,76.07
2019-03-27T05:20:08.620Z,76.11
2019-03-27T05:22:37.966Z,75.65
2019-03-27T05:25:07.474Z,75.65
2019-03-27T05:27:37.608Z,75.36
2019-03-27T05:30:07.753Z,75.58
2019-03-27T05:32:36.978Z,75.58
2019-03-27T05:35:07.445Z,75.31
2019-03-27T05:37:36.667Z,75.08
2019-03-27T05:40:07.545Z,75.05
2019-03-27T05:42:36.799Z,74.93
2019-03-27T05:45:06.341Z,74.93
2019-03-27T05:47:35.662Z,74.92
2019-03-27T05:50:05.924Z,74.92
2019-03-27T05:52:35.154Z,74.95
2019-03-27T05:55:05.774Z,74.83
2019-03-27T05:57:35.015Z,74.55
2019-03-27T06:00:06.555Z,74.41
2019-03-27T06:02:35.838Z,74.02
2019-03-27T06:05:05.770Z,74.06
2019-03-27T06:07:34.995Z,74.05
2019-03-27T06:10:04.967Z,73.65
2019-03-27T06:12:34.177Z,73.59
2019-03-27T06:15:03.878Z,73.59
2019-03-27T06:17:33.097Z,73.68
2019-03-27T06:20:02.248Z,73.64
2019-03-27T06:22:31.447Z,73.65
2019-03-27T06:25:00.621Z,73.53
2019-03-27T06:27:29.988Z,73.52
2019-03-27T06:29:59.291Z,73.39
2019-03-27T06:32:28.525Z,73.39
2019-03-27T06:34:57.760Z,73.43
2019-03-27T06:37:27.313Z,73.43
2019-03-27T06:39:56.560Z,73.58
2019-03-27T06:42:25.779Z,73.42
2019-03-27T06:44:55.036Z,73.47
2019-03-27T06:47:24.322Z,73.47
2019-03-27T06:49:53.636Z,73.27
2019-03-27T06:52:22.932Z,73.67
2019-03-27T06:54:52.122Z,73.67
2019-03-27T06:57:21.247Z,75.21
2019-03-27T06:59:50.439Z,74.83
2019-03-27T07:02:19.602Z,74.83
2019-03-27T07:04:48.792Z,75.04
2019-03-27T07:07:17.980Z,75.16
2019-03-27T07:09:47.202Z,75.74
2019-03-27T07:12:21.313Z,75.74
2019-03-27T07:14:47.255Z,75.25
2019-03-27T07:17:16.453Z,75.25
2019-03-27T07:19:45.643Z,74.56
2019-03-27T07:22:14.865Z,75.01
2019-03-27T07:24:44.107Z,75.01
2019-03-27T07:27:13.380Z,74.66
2019-03-27T07:29:42.631Z,74.78
2019-03-27T07:32:11.877Z,74.46
2019-03-27T07:34:41.161Z,74.20
2019-03-27T07:37:10.401Z,73.31
2019-03-27T07:39:39.714Z,73.36
2019-03-27T07:42:09.134Z,72.96
2019-03-27T07:44:38.356Z,72.80
2019-03-27T07:47:07.592Z,73.46
2019-03-27T07:49:36.918Z,73.47
2019-03-27T07:52:06.244Z,73.96
2019-03-27T07:54:35.514Z,73.96
2019-03-27T07:57:04.874Z,73.73
2019-03-27T07:59:34.081Z,73.53
2019-03-27T08:02:03.354Z,73.34
2019-03-27T08:04:32.593Z,72.64
2019-03-27T08:07:01.793Z,72.42
2019-03-27T08:09:31.009Z,72.42
2019-03-27T08:12:00.477Z,72.24
2019-03-27T08:14:29.699Z,71.94
2019-03-27T08:16:58.897Z,71.75
2019-03-27T08:19:28.127Z,71.46
2019-03-27T08:21:57.493Z,70.89
2019-03-27T08:24:26.679Z,71.07
2019-03-27T08:26:55.935Z,70.86
2019-03-27T08:29:25.148Z,70.73
2019-03-27T08:31:54.439Z,70.25
2019-03-27T08:34:23.821Z,69.76
2019-03-27T08:36:52.940Z,69.46
2019-03-27T08:39:22.171Z,68.32
2019-03-27T08:41:51.411Z,65.97
2019-03-27T08:44:20.579Z,65.74
2019-03-27T08:46:49.783Z,66.04
2019-03-27T08:49:22.202Z,66.02
2019-03-27T08:51:49.979Z,64.56
2019-03-27T08:54:19.200Z,64.85
2019-03-27T08:56:48.322Z,65.08
2019-03-27T08:59:17.583Z,63.65
2019-03-27T09:01:46.775Z,62.50
2019-03-27T09:04:16.019Z,63.23
2019-03-27T09:06:45.174Z,64.15
2019-03-27T09:09:16.660Z,63.71
2019-03-27T09:11:45.830Z,62.75
2019-03-27T09:14:15.079Z,63.05
2019-03-27T09:16:44.293Z,63.15
2019-03-27T09:19:13.471Z,62.89
2019-03-27T09:21:42.728Z,61.76
2019-03-27T09:24:11.903Z,61.63
2019-03-27T09:26:41.094Z,62.53
2019-03-27T09:29:10.318Z,61.05
2019-03-27T09:31:44.971Z,59.80
2019-03-27T09:34:10.490Z,61.57
2019-03-27T09:36:39.652Z,61.57
2019-03-27T09:39:09.793Z,61.83
2019-03-27T09:41:39.036Z,60.99
2019-03-27T09:44:08.399Z,60.10
2019-03-27T09:46:37.610Z,59.70
2019-03-27T09:49:06.802Z,59.70
2019-03-27T09:51:35.990Z,59.13
2019-03-27T09:54:05.295Z,58.86
2019-03-27T09:56:34.494Z,58.24
2019-03-27T09:59:06.027Z,57.64
2019-03-27T10:01:34.724Z,57.38
2019-03-27T10:04:04.025Z,57.05
2019-03-27T10:06:33.252Z,56.19
2019-03-27T10:09:04.248Z,56.05
2019-03-27T10:11:33.478Z,56.38
2019-03-27T10:14:02.678Z,56.36
2019-03-27T10:16:31.860Z,56.02
2019-03-27T10:19:01.089Z,53.86
2019-03-27T10:21:30.266Z,52.51
2019-03-27T10:23:59.478Z,52.51
2019-03-27T10:26:28.678Z,53.03
2019-03-27T10:28:57.886Z,54.15
2019-03-27T10:31:27.082Z,52.76
2019-03-27T10:33:56.271Z,51.75
2019-03-27T10:36:25.513Z,51.75
2019-03-27T10:38:54.807Z,52.24
2019-03-27T10:41:23.950Z,53.08
2019-03-27T10:43:53.197Z,52.59
2019-03-27T10:46:22.424Z,53.62
2019-03-27T10:48:53.094Z,53.62
2019-03-27T10:51:22.573Z,52.88
2019-03-27T10:53:51.849Z,53.36
2019-03-27T10:56:21.083Z,55.53
2019-03-27T10:58:50.303Z,55.64
2019-03-27T11:01:19.558Z,55.47
2019-03-27T11:03:48.769Z,54.79
2019-03-27T11:06:18.012Z,54.79
2019-03-27T11:08:47.235Z,53.33
2019-03-27T11:11:16.618Z,53.55
2019-03-27T11:13:45.832Z,52.89
2019-03-27T11:16:15.080Z,52.97
2019-03-27T11:18:44.574Z,52.63
2019-03-27T11:21:13.862Z,53.27
2019-03-27T11:23:43.133Z,53.27
2019-03-27T11:26:12.458Z,54.10
2019-03-27T11:28:41.735Z,53.84
2019-03-27T11:31:10.935Z,53.84
2019-03-27T11:33:40.296Z,53.76
2019-03-27T11:36:09.505Z,54.17
2019-03-27T11:38:38.744Z,53.68
2019-03-27T11:41:08.194Z,54.07
2019-03-27T11:43:37.495Z,54.15
2019-03-27T11:46:06.794Z,54.07
2019-03-27T11:48:36.053Z,53.98
2019-03-27T11:51:05.307Z,53.75
2019-03-27T11:53:34.541Z,54.37
2019-03-27T11:56:03.728Z,53.57
2019-03-27T11:58:33.061Z,53.57
2019-03-27T12:01:02.264Z,54.39
2019-03-27T12:03:31.490Z,55.72
2019-03-27T12:06:00.758Z,56.64
2019-03-27T12:08:30.286Z,56.03
2019-03-27T12:10:59.518Z,55.58
2019-03-27T12:13:28.723Z,55.01
2019-03-27T12:15:57.923Z,55.88
2019-03-27T12:18:27.228Z,55.41
2019-03-27T12:20:59.459Z,55.41
2019-03-27T12:23:27.363Z,55.36
2019-03-27T12:25:56.707Z,55.50
2019-03-27T12:28:25.940Z,55.70
2019-03-27T12:30:55.198Z,55.70
2019-03-27T12:33:24.604Z,55.26
2019-03-27T12:35:53.841Z,55.78
2019-03-27T12:38:23.069Z,57.11
2019-03-27T12:40:52.286Z,56.67
2019-03-27T12:43:21.542Z,56.32
2019-03-27T12:45:50.824Z,56.33
2019-03-27T12:48:20.115Z,56.39
2019-03-27T12:50:49.448Z,55.56
2019-03-27T12:53:18.675Z,55.37
2019-03-27T12:55:47.983Z,54.97
2019-03-27T12:58:17.235Z,56.38
2019-03-27T13:00:46.443Z,56.73
2019-03-27T13:03:15.707Z,55.15
2019-03-27T13:05:44.955Z,53.74
2019-03-27T13:08:14.275Z,54.37
2019-03-27T13:10:43.597Z,53.87
2019-03-27T13:13:12.771Z,53.32
2019-03-27T13:15:42.063Z,53.15
2019-03-27T13:18:11.244Z,52.77
2019-03-27T13:20:40.551Z,51.45
2019-03-27T13:23:09.811Z,51.45
2019-03-27T13:25:39.069Z,51.32
2019-03-27T13:28:08.270Z,51.93
2019-03-27T13:30:37.542Z,51.32
2019-03-27T13:33:06.794Z,50.94
2019-03-27T13:35:36.108Z,51.16
2019-03-27T13:38:05.338Z,51.18
2019-03-27T13:40:34.572Z,50.60
2019-03-27T13:43:03.812Z,50.41
2019-03-27T13:45:33.052Z,50.49
2019-03-27T13:48:02.281Z,50.22
2019-03-27T13:50:31.586Z,50.18
2019-03-27T13:53:01.088Z,50.18
2019-03-27T13:55:30.359Z,50.30
2019-03-27T13:57:59.731Z,50.67
2019-03-27T14:00:28.876Z,50.23
2019-03-27T14:02:58.081Z,49.71
2019-03-27T14:05:27.344Z,50.22
2019-03-27T14:07:56.670Z,50.13
2019-03-27T14:10:25.860Z,50.19
2019-03-27T14:12:55.260Z,50.53
2019-03-27T14:15:24.439Z,50.53
2019-03-27T14:17:53.656Z,51.07
2019-03-27T14:20:22.906Z,50.93
2019-03-27T14:22:52.135Z,50.53
2019-03-27T14:25:22.244Z,50.53
2019-03-27T14:27:51.519Z,50.70
2019-03-27T14:30:49.137Z,50.61
2019-03-27T14:33:18.635Z,50.21
2019-03-27T14:35:47.932Z,50.28
2019-03-27T14:38:17.147Z,50.84
2019-03-27T14:40:46.618Z,50.66
2019-03-27T14:43:15.931Z,51.29
2019-03-27T14:45:45.313Z,51.29
2019-03-27T14:48:14.650Z,51.46
2019-03-27T14:50:43.892Z,51.27
2019-03-27T14:53:13.139Z,51.35
2019-03-27T14:55:42.354Z,51.42
2019-03-27T14:58:11.580Z,51.75
2019-03-27T15:00:40.862Z,51.59
2019-03-27T15:03:10.214Z,51.91
2019-03-27T15:05:39.439Z,52.01
2019-03-27T15:08:08.860Z,50.90
2019-03-27T15:10:38.166Z,50.90
2019-03-27T15:13:07.541Z,51.45
2019-03-27T15:15:36.861Z,51.51
2019-03-27T15:18:06.221Z,51.97
2019-03-27T15:20:35.578Z,51.97
2019-03-27T15:23:04.850Z,52.65
2019-03-27T15:25:34.187Z,52.10
2019-03-27T15:28:03.419Z,53.48
2019-03-27T15:30:33.127Z,53.11
2019-03-27T15:33:02.414Z,53.11
2019-03-27T15:35:31.618Z,53.00
2019-03-27T15:38:00.923Z,53.27
2019-03-27T15:40:41.346Z,53.22
2019-03-27T15:43:10.619Z,52.22
2019-03-27T15:45:40.249Z,52.36
2019-03-27T15:48:09.629Z,51.22
2019-03-27T15:50:38.902Z,50.61
2019-03-27T15:53:08.098Z,50.71
2019-03-27T15:55:37.359Z,50.81
2019-03-27T15:58:06.649Z,50.81
2019-03-27T16:00:35.964Z,50.12
2019-03-27T16:03:05.217Z,50.23
2019-03-27T16:05:34.417Z,50.44
2019-03-27T16:08:03.734Z,51.74
2019-03-27T16:10:33.078Z,53.01
2019-03-27T16:13:02.334Z,52.42
2019-03-27T16:15:31.544Z,52.62
2019-03-27T16:18:00.750Z,52.24
2019-03-27T16:20:30.051Z,52.41
2019-03-27T16:22:59.284Z,52.36
2019-03-27T16:25:28.629Z,52.60
2019-03-27T16:27:57.824Z,52.17
2019-03-27T16:30:27.022Z,52.58
2019-03-27T16:32:56.257Z,52.86
2019-03-27T16:35:25.501Z,53.45
2019-03-27T16:37:54.725Z,53.99
2019-03-27T16:40:44.424Z,53.77
2019-03-27T16:43:13.722Z,53.77
2019-03-27T16:45:42.974Z,54.58
2019-03-27T16:48:12.323Z,55.07
2019-03-27T16:50:41.618Z,55.79
2019-03-27T16:53:10.913Z,56.28
2019-03-27T16:55:40.189Z,56.92
2019-03-27T16:58:09.523Z,57.37
2019-03-27T17:00:39.221Z,58.36
2019-03-27T17:03:08.431Z,58.23
2019-03-27T17:05:37.659Z,58.26
2019-03-27T17:08:06.957Z,58.52
2019-03-27T17:10:36.358Z,58.45
2019-03-27T17:13:05.753Z,58.07
2019-03-27T17:15:34.959Z,58.30
2019-03-27T17:18:04.551Z,58.11
2019-03-27T17:20:33.752Z,57.67
2019-03-27T17:23:16.990Z,58.41
2019-03-27T17:25:35.107Z,59.48
2019-03-27T17:28:04.513Z,59.56
2019-03-27T17:30:33.923Z,60.06
2019-03-27T17:33:03.192Z,60.91
2019-03-27T17:35:32.401Z,61.24
2019-03-27T17:38:01.665Z,62.59
2019-03-27T17:40:31.006Z,63.99
2019-03-27T17:43:00.303Z,63.82
2019-03-27T17:45:29.557Z,63.75
2019-03-27T17:47:58.793Z,63.80
2019-03-27T17:50:28.151Z,64.10
2019-03-27T17:52:57.413Z,65.23
2019-03-27T17:55:26.648Z,66.31
2019-03-27T17:57:55.942Z,66.59
2019-03-27T18:00:46.574Z,67.08
2019-03-27T18:03:15.877Z,67.29
2019-03-27T18:05:45.188Z,67.09
2019-03-27T18:08:14.441Z,67.72
2019-03-27T18:10:43.823Z,67.96
2019-03-27T18:13:13.126Z,68.12
2019-03-27T18:15:42.372Z,67.25
2019-03-27T18:18:11.521Z,66.87
2019-03-27T18:20:40.739Z,66.34
2019-03-27T18:23:10.014Z,65.98
2019-03-27T18:25:39.311Z,65.80
2019-03-27T18:28:08.596Z,65.27
2019-03-27T18:30:37.906Z,65.07
2019-03-27T18:33:07.106Z,64.99
2019-03-27T18:35:36.419Z,65.02
2019-03-27T18:38:05.813Z,64.94
2019-03-27T18:40:35.214Z,65.66
2019-03-27T18:43:04.515Z,66.26
2019-03-27T18:45:33.761Z,65.84
2019-03-27T18:48:03.125Z,65.48
2019-03-27T18:50:32.316Z,65.30
2019-03-27T18:53:01.559Z,65.20
2019-03-27T18:55:30.827Z,65.04
2019-03-27T18:58:00.838Z,64.94
2019-03-27T19:00:30.318Z,64.89
2019-03-27T19:02:59.647Z,65.04
2019-03-27T19:05:29.555Z,64.87
2019-03-27T19:07:58.856Z,64.82
2019-03-27T19:10:28.076Z,64.82
2019-03-27T19:12:57.362Z,64.77
2019-03-27T19:15:26.599Z,65.03
2019-03-27T19:17:55.860Z,65.03
2019-03-27T19:20:25.239Z,65.09
2019-03-27T19:22:54.479Z,65.00
2019-03-27T19:25:23.702Z,64.89
2019-03-27T19:27:53.003Z,64.86
2019-03-27T19:30:22.468Z,64.84
2019-03-27T19:32:51.752Z,64.82
2019-03-27T19:35:20.977Z,64.85
2019-03-27T19:37:50.198Z,64.94
2019-03-27T19:40:19.460Z,65.08
2019-03-27T19:42:48.967Z,65.18
2019-03-27T19:45:18.219Z,64.90
2019-03-27T19:47:47.447Z,65.00
2019-03-27T19:50:16.751Z,65.11
2019-03-27T19:52:45.997Z,65.22
2019-03-27T19:55:15.301Z,65.37
2019-03-27T19:57:44.534Z,65.22
2019-03-27T20:00:14.105Z,65.43
2019-03-27T20:02:43.367Z,65.21
2019-03-27T20:05:13.253Z,65.18
2019-03-27T20:07:42.606Z,65.29
2019-03-27T20:10:12.315Z,65.35
2019-03-27T20:12:41.594Z,65.40
2019-03-27T20:15:12.806Z,65.40
2019-03-27T20:17:42.288Z,65.33
2019-03-27T20:20:11.772Z,65.60
2019-03-27T20:22:40.994Z,65.62
2019-03-27T20:25:10.574Z,65.84
2019-03-27T20:27:39.796Z,66.11
2019-03-27T20:30:15.079Z,65.88
2019-03-27T20:32:44.403Z,66.18
2019-03-27T20:35:13.701Z,66.21
2019-03-27T20:37:43.003Z,66.76
2019-03-27T20:40:14.028Z,67.11
2019-03-27T20:42:43.322Z,67.36
2019-03-27T20:45:13.008Z,67.42
2019-03-27T20:47:42.166Z,67.64
2019-03-27T20:50:11.861Z,68.48
2019-03-27T20:52:41.245Z,68.37
2019-03-27T20:55:10.718Z,69.16
2019-03-27T20:57:40.026Z,69.97
2019-03-27T21:00:09.940Z,70.92
2019-03-27T21:02:39.394Z,71.45
2019-03-27T21:05:09.009Z,71.45
2019-03-27T21:07:38.217Z,71.61
2019-03-27T21:10:08.124Z,71.91
2019-03-27T21:12:37.440Z,71.93
2019-03-27T21:15:07.739Z,71.88
2019-03-27T21:17:37.054Z,73.44
2019-03-27T21:20:07.047Z,73.44
2019-03-27T21:22:54.214Z,73.72
2019-03-27T21:25:23.481Z,73.72
2019-03-27T21:27:52.701Z,74.14
2019-03-27T21:30:22.037Z,74.36
2019-03-27T21:32:51.283Z,74.86
2019-03-27T21:35:20.596Z,74.51
2019-03-27T21:37:49.867Z,74.70
2019-03-27T21:40:19.300Z,74.33
2019-03-27T21:42:48.591Z,74.02
2019-03-27T21:45:17.935Z,74.08
2019-03-27T21:47:47.192Z,74.28
2019-03-27T21:50:16.506Z,74.13
2019-03-27T21:52:59.599Z,74.07
2019-03-27T21:55:22.749Z,73.93
2019-03-27T21:57:47.885Z,73.74
2019-03-27T22:00:20.334Z,73.47
2019-03-27T22:02:49.624Z,73.22
2019-03-27T22:05:18.879Z,73.61
2019-03-27T22:07:48.187Z,73.54
2019-03-27T22:10:17.483Z,73.54
2019-03-27T22:12:46.794Z,73.36
2019-03-27T22:15:16.060Z,73.27
2019-03-27T22:17:45.350Z,73.62
2019-03-27T22:20:15.565Z,73.58
2019-03-27T22:22:44.861Z,73.76
2019-03-27T22:25:14.200Z,73.58
2019-03-27T22:27:43.450Z,73.57
2019-03-27T22:30:12.885Z,74.30
2019-03-27T22:32:42.133Z,74.34
2019-03-27T22:35:11.431Z,74.43
2019-03-27T22:37:40.708Z,74.11
2019-03-27T22:40:10.083Z,73.96
2019-03-27T22:42:39.394Z,73.92
2019-03-27T22:45:08.907Z,73.79
2019-03-27T22:47:38.181Z,73.98
2019-03-27T22:50:08.554Z,73.88
2019-03-27T22:52:38.077Z,73.77
2019-03-27T22:55:08.259Z,73.98
2019-03-27T22:57:37.551Z,74.16
2019-03-27T23:00:11.578Z,74.20
2019-03-27T23:02:40.955Z,74.50
2019-03-27T23:05:10.879Z,74.59
2019-03-27T23:07:40.130Z,74.74
2019-03-27T23:10:09.548Z,75.14
2019-03-27T23:12:38.814Z,75.19
2019-03-27T23:15:09.913Z,75.06
2019-03-27T23:17:39.157Z,74.92
2019-03-27T23:20:10.569Z,74.83
2019-03-27T23:22:39.978Z,74.83
2019-03-27T23:25:09.401Z,75.02
2019-03-27T23:27:38.581Z,75.28
2019-03-27T23:30:09.065Z,75.23
2019-03-27T23:32:38.329Z,75.20
2019-03-27T23:35:08.031Z,75.04
2019-03-27T23:37:37.469Z,75.40
2019-03-27T23:40:08.665Z,75.35
2019-03-27T23:42:38.018Z,75.32
2019-03-27T23:45:07.890Z,75.21
2019-03-27T23:47:37.145Z,75.42
2019-03-27T23:50:08.311Z,75.35
2019-03-27T23:52:37.575Z,75.30
2019-03-27T23:55:07.258Z,75.31
2019-03-27T23:57:37.311Z,75.26
